sensor_id;sensor_type;location;lat;lon;timestamp;P1;durP1;ratioP1;P2;durP2;ratioP2
69502;SDS011;56704;54.242;12.442;2023-05-16T00:02:07;31.53;;;17.57;;
69502;SDS011;56704;54.242;12.442;2023-05-16T00:04:34;32.97;;;19.80;;
69502;SDS011;56704;54.242;12.442;2023-05-16T00:07:01;28.48;;;15.18;;
69502;SDS011;56704;54.242;12.442;2023-05-16T00:09:28;38.58;;;20.67;;
69502;SDS011;56704;54.242;12.442;2023-05-16T00:11:55;35.28;;;19.67;;
69502;SDS011;56704;54.242;12.442;2023-05-16T00:14:22;38.70;;;19.70;;
69502;SDS011;56704;54.242;12.442;2023-05-16T00:16:50;40.63;;;21.65;;
69502;SDS011;56704;54.242;12.442;2023-05-16T00:19:19;36.40;;;20.23;;
69502;SDS011;56704;54.242;12.442;2023-05-16T00:21:45;34.72;;;20.02;;
69502;SDS011;56704;54.242;12.442;2023-05-16T00:24:12;36.90;;;20.17;;
69502;SDS011;56704;54.242;12.442;2023-05-16T00:26:39;36.20;;;20.50;;
69502;SDS011;56704;54.242;12.442;2023-05-16T00:29:05;34.47;;;19.90;;
69502;SDS011;56704;54.242;12.442;2023-05-16T00:31:32;32.33;;;19.92;;
69502;SDS011;56704;54.242;12.442;2023-05-16T00:33:59;33.35;;;16.98;;
69502;SDS011;56704;54.242;12.442;2023-05-16T00:36:27;30.27;;;17.17;;
69502;SDS011;56704;54.242;12.442;2023-05-16T00:38:55;30.30;;;16.47;;
69502;SDS011;56704;54.242;12.442;2023-05-16T00:41:22;29.52;;;15.68;;
69502;SDS011;56704;54.242;12.442;2023-05-16T00:43:50;31.90;;;17.45;;
69502;SDS011;56704;54.242;12.442;2023-05-16T00:46:17;35.47;;;18.35;;
69502;SDS011;56704;54.242;12.442;2023-05-16T00:48:43;36.10;;;19.33;;
69502;SDS011;56704;54.242;12.442;2023-05-16T00:51:10;32.57;;;20.07;;
69502;SDS011;56704;54.242;12.442;2023-05-16T00:53:38;34.42;;;18.85;;
69502;SDS011;56704;54.242;12.442;2023-05-16T00:56:05;39.60;;;22.80;;
69502;SDS011;56704;54.242;12.442;2023-05-16T00:58:32;37.47;;;20.77;;
69502;SDS011;56704;54.242;12.442;2023-05-16T01:00:59;41.30;;;22.08;;
69502;SDS011;56704;54.242;12.442;2023-05-16T01:03:27;36.50;;;20.43;;
69502;SDS011;56704;54.242;12.442;2023-05-16T01:05:54;33.67;;;19.45;;
69502;SDS011;56704;54.242;12.442;2023-05-16T01:08:22;38.08;;;20.33;;
69502;SDS011;56704;54.242;12.442;2023-05-16T01:10:52;35.08;;;17.42;;
69502;SDS011;56704;54.242;12.442;2023-05-16T01:13:27;34.10;;;18.23;;
69502;SDS011;56704;54.242;12.442;2023-05-16T01:16:00;30.70;;;15.00;;
69502;SDS011;56704;54.242;12.442;2023-05-16T01:18:35;24.95;;;12.90;;
69502;SDS011;56704;54.242;12.442;2023-05-16T01:21:07;30.35;;;13.15;;
69502;SDS011;56704;54.242;12.442;2023-05-16T01:23:45;21.88;;;10.15;;
69502;SDS011;56704;54.242;12.442;2023-05-16T01:26:19;25.88;;;10.50;;
69502;SDS011;56704;54.242;12.442;2023-05-16T01:28:47;19.23;;;8.20;;
69502;SDS011;56704;54.242;12.442;2023-05-16T01:31:15;27.02;;;9.88;;
69502;SDS011;56704;54.242;12.442;2023-05-16T01:33:42;22.23;;;9.45;;
69502;SDS011;56704;54.242;12.442;2023-05-16T01:36:11;18.35;;;7.22;;
69502;SDS011;56704;54.242;12.442;2023-05-16T01:38:43;21.30;;;9.25;;
69502;SDS011;56704;54.242;12.442;2023-05-16T01:41:17;23.43;;;9.33;;
69502;SDS011;56704;54.242;12.442;2023-05-16T01:43:50;20.80;;;9.20;;
69502;SDS011;56704;54.242;12.442;2023-05-16T01:46:23;19.52;;;8.70;;
69502;SDS011;56704;54.242;12.442;2023-05-16T01:48:56;18.60;;;8.05;;
69502;SDS011;56704;54.242;12.442;2023-05-16T01:51:28;23.60;;;8.13;;
69502;SDS011;56704;54.242;12.442;2023-05-16T01:53:58;20.50;;;8.47;;
69502;SDS011;56704;54.242;12.442;2023-05-16T01:56:31;20.55;;;7.80;;
69502;SDS011;56704;54.242;12.442;2023-05-16T01:58:58;20.75;;;7.47;;
69502;SDS011;56704;54.242;12.442;2023-05-16T02:01:28;18.65;;;6.13;;
69502;SDS011;56704;54.242;12.442;2023-05-16T02:03:55;15.13;;;5.95;;
69502;SDS011;56704;54.242;12.442;2023-05-16T02:06:22;20.40;;;7.03;;
69502;SDS011;56704;54.242;12.442;2023-05-16T02:08:49;14.40;;;5.50;;
69502;SDS011;56704;54.242;12.442;2023-05-16T02:11:16;16.02;;;6.85;;
69502;SDS011;56704;54.242;12.442;2023-05-16T02:13:44;17.45;;;7.30;;
69502;SDS011;56704;54.242;12.442;2023-05-16T02:16:11;14.38;;;5.15;;
69502;SDS011;56704;54.242;12.442;2023-05-16T02:18:38;17.67;;;6.57;;
69502;SDS011;56704;54.242;12.442;2023-05-16T02:21:05;14.40;;;6.43;;
69502;SDS011;56704;54.242;12.442;2023-05-16T02:23:32;15.25;;;6.13;;
69502;SDS011;56704;54.242;12.442;2023-05-16T02:25:59;15.70;;;7.25;;
69502;SDS011;56704;54.242;12.442;2023-05-16T02:28:25;14.43;;;7.10;;
69502;SDS011;56704;54.242;12.442;2023-05-16T02:30:56;18.07;;;7.83;;
69502;SDS011;56704;54.242;12.442;2023-05-16T02:33:23;13.95;;;6.25;;
69502;SDS011;56704;54.242;12.442;2023-05-16T02:35:50;17.77;;;7.00;;
69502;SDS011;56704;54.242;12.442;2023-05-16T02:38:17;19.15;;;6.35;;
69502;SDS011;56704;54.242;12.442;2023-05-16T02:40:45;14.05;;;4.75;;
69502;SDS011;56704;54.242;12.442;2023-05-16T02:43:11;14.10;;;5.80;;
69502;SDS011;56704;54.242;12.442;2023-05-16T02:45:38;11.93;;;4.90;;
69502;SDS011;56704;54.242;12.442;2023-05-16T02:48:07;13.20;;;5.70;;
69502;SDS011;56704;54.242;12.442;2023-05-16T02:50:33;16.52;;;6.55;;
69502;SDS011;56704;54.242;12.442;2023-05-16T02:53:01;11.35;;;4.68;;
69502;SDS011;56704;54.242;12.442;2023-05-16T02:55:28;14.37;;;5.43;;
69502;SDS011;56704;54.242;12.442;2023-05-16T02:57:55;12.75;;;4.85;;
69502;SDS011;56704;54.242;12.442;2023-05-16T03:00:21;11.57;;;5.07;;
69502;SDS011;56704;54.242;12.442;2023-05-16T03:02:48;10.20;;;4.40;;
69502;SDS011;56704;54.242;12.442;2023-05-16T03:05:16;12.13;;;5.85;;
69502;SDS011;56704;54.242;12.442;2023-05-16T03:07:43;13.23;;;5.27;;
69502;SDS011;56704;54.242;12.442;2023-05-16T03:10:10;11.13;;;4.68;;
69502;SDS011;56704;54.242;12.442;2023-05-16T03:12:37;11.98;;;5.05;;
69502;SDS011;56704;54.242;12.442;2023-05-16T03:15:04;12.23;;;5.80;;
69502;SDS011;56704;54.242;12.442;2023-05-16T03:17:33;13.13;;;5.88;;
69502;SDS011;56704;54.242;12.442;2023-05-16T03:19:59;12.13;;;5.87;;
69502;SDS011;56704;54.242;12.442;2023-05-16T03:22:28;15.45;;;5.90;;
69502;SDS011;56704;54.242;12.442;2023-05-16T03:24:55;12.43;;;4.75;;
69502;SDS011;56704;54.242;12.442;2023-05-16T03:27:21;11.77;;;4.72;;
69502;SDS011;56704;54.242;12.442;2023-05-16T03:29:48;10.57;;;4.15;;
69502;SDS011;56704;54.242;12.442;2023-05-16T03:32:15;12.73;;;5.27;;
69502;SDS011;56704;54.242;12.442;2023-05-16T03:34:43;14.10;;;5.32;;
69502;SDS011;56704;54.242;12.442;2023-05-16T03:37:10;13.40;;;5.38;;
69502;SDS011;56704;54.242;12.442;2023-05-16T03:39:40;11.70;;;4.13;;
69502;SDS011;56704;54.242;12.442;2023-05-16T03:42:06;15.38;;;4.70;;
69502;SDS011;56704;54.242;12.442;2023-05-16T03:44:34;12.23;;;5.00;;
69502;SDS011;56704;54.242;12.442;2023-05-16T03:47:00;10.25;;;5.22;;
69502;SDS011;56704;54.242;12.442;2023-05-16T03:49:27;11.82;;;5.18;;
69502;SDS011;56704;54.242;12.442;2023-05-16T03:51:54;13.75;;;6.13;;
69502;SDS011;56704;54.242;12.442;2023-05-16T03:54:21;9.95;;;4.82;;
69502;SDS011;56704;54.242;12.442;2023-05-16T03:56:49;13.67;;;6.53;;
69502;SDS011;56704;54.242;12.442;2023-05-16T03:59:16;13.88;;;6.20;;
69502;SDS011;56704;54.242;12.442;2023-05-16T04:01:42;14.02;;;5.18;;
69502;SDS011;56704;54.242;12.442;2023-05-16T04:04:09;15.70;;;6.40;;
69502;SDS011;56704;54.242;12.442;2023-05-16T04:06:36;11.02;;;4.00;;
69502;SDS011;56704;54.242;12.442;2023-05-16T04:09:03;11.40;;;5.07;;
69502;SDS011;56704;54.242;12.442;2023-05-16T04:11:29;14.13;;;5.18;;
69502;SDS011;56704;54.242;12.442;2023-05-16T04:13:57;9.95;;;4.30;;
69502;SDS011;56704;54.242;12.442;2023-05-16T04:16:25;10.23;;;3.88;;
69502;SDS011;56704;54.242;12.442;2023-05-16T04:18:52;10.23;;;4.63;;
69502;SDS011;56704;54.242;12.442;2023-05-16T04:21:20;9.37;;;3.37;;
69502;SDS011;56704;54.242;12.442;2023-05-16T04:23:46;10.98;;;5.05;;
69502;SDS011;56704;54.242;12.442;2023-05-16T04:26:13;8.15;;;3.40;;
69502;SDS011;56704;54.242;12.442;2023-05-16T04:28:40;8.68;;;3.13;;
69502;SDS011;56704;54.242;12.442;2023-05-16T04:31:08;10.05;;;3.97;;
69502;SDS011;56704;54.242;12.442;2023-05-16T04:33:35;7.73;;;3.50;;
69502;SDS011;56704;54.242;12.442;2023-05-16T04:36:01;7.50;;;2.55;;
69502;SDS011;56704;54.242;12.442;2023-05-16T04:38:29;7.40;;;2.40;;
69502;SDS011;56704;54.242;12.442;2023-05-16T04:40:56;9.60;;;2.70;;
69502;SDS011;56704;54.242;12.442;2023-05-16T04:43:23;10.32;;;2.45;;
69502;SDS011;56704;54.242;12.442;2023-05-16T04:45:49;6.20;;;2.17;;
69502;SDS011;56704;54.242;12.442;2023-05-16T04:48:19;9.55;;;2.30;;
69502;SDS011;56704;54.242;12.442;2023-05-16T04:50:46;5.93;;;1.63;;
69502;SDS011;56704;54.242;12.442;2023-05-16T04:53:12;11.10;;;2.13;;
69502;SDS011;56704;54.242;12.442;2023-05-16T04:55:39;13.55;;;2.03;;
69502;SDS011;56704;54.242;12.442;2023-05-16T04:58:06;9.73;;;1.67;;
69502;SDS011;56704;54.242;12.442;2023-05-16T05:00:32;6.15;;;1.50;;
69502;SDS011;56704;54.242;12.442;2023-05-16T05:02:59;6.38;;;1.27;;
69502;SDS011;56704;54.242;12.442;2023-05-16T05:05:27;11.85;;;1.80;;
69502;SDS011;56704;54.242;12.442;2023-05-16T05:07:54;11.07;;;1.80;;
69502;SDS011;56704;54.242;12.442;2023-05-16T05:10:23;7.87;;;2.60;;
69502;SDS011;56704;54.242;12.442;2023-05-16T05:12:51;10.23;;;1.63;;
69502;SDS011;56704;54.242;12.442;2023-05-16T05:15:18;9.35;;;1.80;;
69502;SDS011;56704;54.242;12.442;2023-05-16T05:17:44;5.75;;;1.55;;
69502;SDS011;56704;54.242;12.442;2023-05-16T05:20:11;7.15;;;1.40;;
69502;SDS011;56704;54.242;12.442;2023-05-16T05:22:39;9.47;;;1.73;;
69502;SDS011;56704;54.242;12.442;2023-05-16T05:25:06;7.88;;;1.48;;
69502;SDS011;56704;54.242;12.442;2023-05-16T05:27:33;8.25;;;1.55;;
69502;SDS011;56704;54.242;12.442;2023-05-16T05:30:00;9.38;;;1.73;;
69502;SDS011;56704;54.242;12.442;2023-05-16T05:32:27;9.40;;;1.50;;
69502;SDS011;56704;54.242;12.442;2023-05-16T05:34:55;8.40;;;1.63;;
69502;SDS011;56704;54.242;12.442;2023-05-16T05:37:21;8.63;;;1.65;;
69502;SDS011;56704;54.242;12.442;2023-05-16T05:39:49;9.32;;;1.90;;
69502;SDS011;56704;54.242;12.442;2023-05-16T05:42:16;6.38;;;1.85;;
69502;SDS011;56704;54.242;12.442;2023-05-16T05:44:42;11.48;;;1.63;;
69502;SDS011;56704;54.242;12.442;2023-05-16T05:47:09;8.77;;;1.03;;
69502;SDS011;56704;54.242;12.442;2023-05-16T05:49:36;8.80;;;1.60;;
69502;SDS011;56704;54.242;12.442;2023-05-16T05:52:02;6.53;;;1.35;;
69502;SDS011;56704;54.242;12.442;2023-05-16T05:54:30;12.23;;;2.10;;
69502;SDS011;56704;54.242;12.442;2023-05-16T05:56:58;6.57;;;1.52;;
69502;SDS011;56704;54.242;12.442;2023-05-16T05:59:24;7.40;;;1.20;;
69502;SDS011;56704;54.242;12.442;2023-05-16T06:01:51;8.60;;;1.42;;
69502;SDS011;56704;54.242;12.442;2023-05-16T06:04:18;9.15;;;1.45;;
69502;SDS011;56704;54.242;12.442;2023-05-16T06:06:45;10.63;;;1.80;;
69502;SDS011;56704;54.242;12.442;2023-05-16T06:09:12;6.25;;;1.27;;
69502;SDS011;56704;54.242;12.442;2023-05-16T06:11:39;8.53;;;2.00;;
69502;SDS011;56704;54.242;12.442;2023-05-16T06:14:07;8.45;;;1.50;;
69502;SDS011;56704;54.242;12.442;2023-05-16T06:16:33;10.55;;;1.65;;
69502;SDS011;56704;54.242;12.442;2023-05-16T06:19:00;8.40;;;1.42;;
69502;SDS011;56704;54.242;12.442;2023-05-16T06:21:26;8.68;;;2.03;;
69502;SDS011;56704;54.242;12.442;2023-05-16T06:23:53;8.53;;;1.50;;
69502;SDS011;56704;54.242;12.442;2023-05-16T06:26:20;6.97;;;1.30;;
69502;SDS011;56704;54.242;12.442;2023-05-16T06:28:47;7.30;;;1.20;;
69502;SDS011;56704;54.242;12.442;2023-05-16T06:31:15;5.90;;;1.42;;
69502;SDS011;56704;54.242;12.442;2023-05-16T06:33:41;7.95;;;1.55;;
69502;SDS011;56704;54.242;12.442;2023-05-16T06:36:08;12.00;;;1.50;;
69502;SDS011;56704;54.242;12.442;2023-05-16T06:38:35;8.75;;;1.77;;
69502;SDS011;56704;54.242;12.442;2023-05-16T06:41:01;7.93;;;1.00;;
69502;SDS011;56704;54.242;12.442;2023-05-16T06:43:31;7.25;;;1.10;;
69502;SDS011;56704;54.242;12.442;2023-05-16T06:45:58;10.20;;;1.58;;
69502;SDS011;56704;54.242;12.442;2023-05-16T06:48:26;5.13;;;1.03;;
69502;SDS011;56704;54.242;12.442;2023-05-16T06:50:52;5.10;;;1.15;;
69502;SDS011;56704;54.242;12.442;2023-05-16T06:53:19;8.98;;;0.93;;
69502;SDS011;56704;54.242;12.442;2023-05-16T06:55:45;7.63;;;1.08;;
69502;SDS011;56704;54.242;12.442;2023-05-16T06:58:12;4.43;;;0.63;;
69502;SDS011;56704;54.242;12.442;2023-05-16T07:00:39;6.20;;;0.63;;
69502;SDS011;56704;54.242;12.442;2023-05-16T07:03:06;5.10;;;0.90;;
69502;SDS011;56704;54.242;12.442;2023-05-16T07:05:34;10.20;;;1.05;;
69502;SDS011;56704;54.242;12.442;2023-05-16T07:08:00;5.85;;;0.98;;
69502;SDS011;56704;54.242;12.442;2023-05-16T07:10:27;8.73;;;1.20;;
69502;SDS011;56704;54.242;12.442;2023-05-16T07:12:54;4.77;;;0.73;;
69502;SDS011;56704;54.242;12.442;2023-05-16T07:15:20;5.43;;;0.77;;
69502;SDS011;56704;54.242;12.442;2023-05-16T07:17:47;8.15;;;0.93;;
69502;SDS011;56704;54.242;12.442;2023-05-16T07:20:14;6.50;;;0.82;;
69502;SDS011;56704;54.242;12.442;2023-05-16T07:22:42;4.22;;;0.68;;
69502;SDS011;56704;54.242;12.442;2023-05-16T07:25:09;2.50;;;0.33;;
69502;SDS011;56704;54.242;12.442;2023-05-16T07:27:37;5.35;;;0.50;;
69502;SDS011;56704;54.242;12.442;2023-05-16T07:30:05;3.78;;;0.50;;
69502;SDS011;56704;54.242;12.442;2023-05-16T07:32:33;4.55;;;0.90;;
69502;SDS011;56704;54.242;12.442;2023-05-16T07:35:00;6.35;;;0.70;;
69502;SDS011;56704;54.242;12.442;2023-05-16T07:37:27;8.93;;;1.40;;
69502;SDS011;56704;54.242;12.442;2023-05-16T07:39:55;7.90;;;0.70;;
69502;SDS011;56704;54.242;12.442;2023-05-16T07:42:21;5.38;;;0.80;;
69502;SDS011;56704;54.242;12.442;2023-05-16T07:44:48;9.57;;;1.00;;
69502;SDS011;56704;54.242;12.442;2023-05-16T07:47:14;5.18;;;0.52;;
69502;SDS011;56704;54.242;12.442;2023-05-16T07:49:41;7.90;;;0.77;;
69502;SDS011;56704;54.242;12.442;2023-05-16T07:52:08;11.13;;;1.42;;
69502;SDS011;56704;54.242;12.442;2023-05-16T07:54:34;7.70;;;0.73;;
69502;SDS011;56704;54.242;12.442;2023-05-16T07:57:02;5.35;;;0.60;;
69502;SDS011;56704;54.242;12.442;2023-05-16T07:59:30;9.93;;;1.00;;
69502;SDS011;56704;54.242;12.442;2023-05-16T08:01:56;8.20;;;1.00;;
69502;SDS011;56704;54.242;12.442;2023-05-16T08:04:23;5.38;;;0.90;;
69502;SDS011;56704;54.242;12.442;2023-05-16T08:06:49;5.00;;;0.82;;
69502;SDS011;56704;54.242;12.442;2023-05-16T08:09:16;5.78;;;0.60;;
69502;SDS011;56704;54.242;12.442;2023-05-16T08:11:43;11.43;;;1.17;;
69502;SDS011;56704;54.242;12.442;2023-05-16T08:14:11;9.03;;;1.27;;
69502;SDS011;56704;54.242;12.442;2023-05-16T08:16:38;7.72;;;1.13;;
69502;SDS011;56704;54.242;12.442;2023-05-16T08:19:05;8.02;;;1.48;;
69502;SDS011;56704;54.242;12.442;2023-05-16T08:21:32;6.78;;;0.75;;
69502;SDS011;56704;54.242;12.442;2023-05-16T08:23:58;6.78;;;0.90;;
69502;SDS011;56704;54.242;12.442;2023-05-16T08:26:25;5.80;;;0.63;;
69502;SDS011;56704;54.242;12.442;2023-05-16T08:28:51;9.25;;;0.93;;
69502;SDS011;56704;54.242;12.442;2023-05-16T08:31:19;6.95;;;0.77;;
69502;SDS011;56704;54.242;12.442;2023-05-16T08:33:46;7.20;;;1.08;;
69502;SDS011;56704;54.242;12.442;2023-05-16T08:36:12;7.57;;;1.20;;
69502;SDS011;56704;54.242;12.442;2023-05-16T08:38:40;9.80;;;1.27;;
69502;SDS011;56704;54.242;12.442;2023-05-16T08:41:06;6.97;;;1.27;;
69502;SDS011;56704;54.242;12.442;2023-05-16T08:43:33;9.20;;;0.90;;
69502;SDS011;56704;54.242;12.442;2023-05-16T08:46:00;6.97;;;0.68;;
69502;SDS011;56704;54.242;12.442;2023-05-16T08:48:28;6.40;;;1.00;;
69502;SDS011;56704;54.242;12.442;2023-05-16T08:50:57;8.13;;;1.83;;
69502;SDS011;56704;54.242;12.442;2023-05-16T08:53:25;11.95;;;1.13;;
69502;SDS011;56704;54.242;12.442;2023-05-16T08:55:57;6.20;;;0.88;;
69502;SDS011;56704;54.242;12.442;2023-05-16T08:58:25;10.80;;;1.80;;
69502;SDS011;56704;54.242;12.442;2023-05-16T09:00:52;4.45;;;0.80;;
69502;SDS011;56704;54.242;12.442;2023-05-16T09:03:19;7.80;;;1.10;;
69502;SDS011;56704;54.242;12.442;2023-05-16T09:05:49;9.57;;;0.73;;
69502;SDS011;56704;54.242;12.442;2023-05-16T09:08:16;6.13;;;0.75;;
69502;SDS011;56704;54.242;12.442;2023-05-16T09:10:44;11.82;;;0.75;;
69502;SDS011;56704;54.242;12.442;2023-05-16T09:13:11;10.25;;;0.88;;
69502;SDS011;56704;54.242;12.442;2023-05-16T09:15:37;7.27;;;1.00;;
69502;SDS011;56704;54.242;12.442;2023-05-16T09:18:04;5.10;;;0.63;;
69502;SDS011;56704;54.242;12.442;2023-05-16T09:20:31;5.82;;;0.90;;
69502;SDS011;56704;54.242;12.442;2023-05-16T09:22:59;4.35;;;0.65;;
69502;SDS011;56704;54.242;12.442;2023-05-16T09:25:27;6.60;;;0.90;;
69502;SDS011;56704;54.242;12.442;2023-05-16T09:27:56;4.10;;;0.80;;
69502;SDS011;56704;54.242;12.442;2023-05-16T09:30:26;8.55;;;0.80;;
69502;SDS011;56704;54.242;12.442;2023-05-16T09:32:54;5.60;;;0.52;;
69502;SDS011;56704;54.242;12.442;2023-05-16T09:35:21;4.13;;;0.50;;
69502;SDS011;56704;54.242;12.442;2023-05-16T09:37:49;5.32;;;1.20;;
69502;SDS011;56704;54.242;12.442;2023-05-16T09:40:21;6.97;;;0.60;;
69502;SDS011;56704;54.242;12.442;2023-05-16T09:42:48;6.68;;;0.95;;
69502;SDS011;56704;54.242;12.442;2023-05-16T09:45:27;6.43;;;0.77;;
69502;SDS011;56704;54.242;12.442;2023-05-16T09:47:57;6.60;;;0.75;;
69502;SDS011;56704;54.242;12.442;2023-05-16T09:50:26;5.15;;;0.55;;
69502;SDS011;56704;54.242;12.442;2023-05-16T09:52:53;6.43;;;0.60;;
69502;SDS011;56704;54.242;12.442;2023-05-16T09:55:21;6.07;;;0.63;;
69502;SDS011;56704;54.242;12.442;2023-05-16T09:57:49;7.47;;;0.70;;
69502;SDS011;56704;54.242;12.442;2023-05-16T10:00:16;8.32;;;1.00;;
69502;SDS011;56704;54.242;12.442;2023-05-16T10:02:43;5.60;;;0.95;;
69502;SDS011;56704;54.242;12.442;2023-05-16T10:05:11;5.53;;;0.50;;
69502;SDS011;56704;54.242;12.442;2023-05-16T10:07:38;5.50;;;0.80;;
69502;SDS011;56704;54.242;12.442;2023-05-16T10:10:07;4.05;;;0.50;;
69502;SDS011;56704;54.242;12.442;2023-05-16T10:12:37;7.00;;;0.63;;
69502;SDS011;56704;54.242;12.442;2023-05-16T10:15:04;8.27;;;0.98;;
69502;SDS011;56704;54.242;12.442;2023-05-16T10:17:32;4.93;;;1.00;;
69502;SDS011;56704;54.242;12.442;2023-05-16T10:20:02;4.35;;;0.60;;
69502;SDS011;56704;54.242;12.442;2023-05-16T10:22:32;3.58;;;0.40;;
69502;SDS011;56704;54.242;12.442;2023-05-16T10:25:03;9.68;;;0.90;;
69502;SDS011;56704;54.242;12.442;2023-05-16T10:27:36;5.75;;;0.90;;
69502;SDS011;56704;54.242;12.442;2023-05-16T10:30:05;4.77;;;0.73;;
69502;SDS011;56704;54.242;12.442;2023-05-16T10:32:33;4.00;;;0.50;;
69502;SDS011;56704;54.242;12.442;2023-05-16T10:35:01;4.25;;;0.55;;
69502;SDS011;56704;54.242;12.442;2023-05-16T10:37:28;6.85;;;0.88;;
69502;SDS011;56704;54.242;12.442;2023-05-16T10:39:56;5.45;;;0.43;;
69502;SDS011;56704;54.242;12.442;2023-05-16T10:42:25;3.87;;;0.70;;
69502;SDS011;56704;54.242;12.442;2023-05-16T10:44:54;4.72;;;0.70;;
69502;SDS011;56704;54.242;12.442;2023-05-16T10:47:21;5.13;;;0.60;;
69502;SDS011;56704;54.242;12.442;2023-05-16T10:49:47;6.07;;;0.63;;
69502;SDS011;56704;54.242;12.442;2023-05-16T10:52:14;3.35;;;0.60;;
69502;SDS011;56704;54.242;12.442;2023-05-16T10:54:42;6.00;;;0.83;;
69502;SDS011;56704;54.242;12.442;2023-05-16T10:57:15;7.80;;;0.60;;
69502;SDS011;56704;54.242;12.442;2023-05-16T10:59:45;4.78;;;0.45;;
69502;SDS011;56704;54.242;12.442;2023-05-16T11:02:24;4.85;;;0.50;;
69502;SDS011;56704;54.242;12.442;2023-05-16T11:04:53;3.88;;;0.73;;
69502;SDS011;56704;54.242;12.442;2023-05-16T11:07:21;5.00;;;0.60;;
69502;SDS011;56704;54.242;12.442;2023-05-16T11:10:00;4.18;;;0.55;;
69502;SDS011;56704;54.242;12.442;2023-05-16T11:12:35;4.90;;;0.60;;
69502;SDS011;56704;54.242;12.442;2023-05-16T11:15:22;6.15;;;0.90;;
69502;SDS011;56704;54.242;12.442;2023-05-16T11:17:55;5.50;;;0.57;;
69502;SDS011;56704;54.242;12.442;2023-05-16T11:20:30;5.43;;;1.23;;
69502;SDS011;56704;54.242;12.442;2023-05-16T11:23:16;3.25;;;0.70;;
69502;SDS011;56704;54.242;12.442;2023-05-16T11:25:47;4.70;;;0.80;;
69502;SDS011;56704;54.242;12.442;2023-05-16T11:28:16;4.07;;;0.60;;
69502;SDS011;56704;54.242;12.442;2023-05-16T11:30:45;5.05;;;1.05;;
69502;SDS011;56704;54.242;12.442;2023-05-16T11:33:14;6.97;;;1.00;;
69502;SDS011;56704;54.242;12.442;2023-05-16T11:35:41;3.63;;;0.50;;
69502;SDS011;56704;54.242;12.442;2023-05-16T11:38:11;7.32;;;0.80;;
69502;SDS011;56704;54.242;12.442;2023-05-16T11:40:43;7.57;;;1.08;;
69502;SDS011;56704;54.242;12.442;2023-05-16T11:43:11;3.70;;;0.50;;
69502;SDS011;56704;54.242;12.442;2023-05-16T11:45:44;5.13;;;0.80;;
69502;SDS011;56704;54.242;12.442;2023-05-16T11:48:11;5.45;;;0.70;;
69502;SDS011;56704;54.242;12.442;2023-05-16T11:50:39;4.97;;;0.70;;
69502;SDS011;56704;54.242;12.442;2023-05-16T11:53:06;5.80;;;0.63;;
69502;SDS011;56704;54.242;12.442;2023-05-16T11:55:33;6.72;;;0.88;;
69502;SDS011;56704;54.242;12.442;2023-05-16T11:58:00;5.80;;;0.77;;
69502;SDS011;56704;54.242;12.442;2023-05-16T12:00:27;6.97;;;0.75;;
69502;SDS011;56704;54.242;12.442;2023-05-16T12:02:57;5.13;;;0.73;;
69502;SDS011;56704;54.242;12.442;2023-05-16T12:05:26;6.88;;;0.90;;
69502;SDS011;56704;54.242;12.442;2023-05-16T12:07:56;8.02;;;0.98;;
69502;SDS011;56704;54.242;12.442;2023-05-16T12:10:23;5.50;;;1.47;;
69502;SDS011;56704;54.242;12.442;2023-05-16T12:12:50;7.10;;;0.77;;
69502;SDS011;56704;54.242;12.442;2023-05-16T12:15:17;5.93;;;0.50;;
69502;SDS011;56704;54.242;12.442;2023-05-16T12:17:45;5.85;;;0.88;;
69502;SDS011;56704;54.242;12.442;2023-05-16T12:20:12;7.43;;;0.80;;
69502;SDS011;56704;54.242;12.442;2023-05-16T12:22:40;9.53;;;1.27;;
69502;SDS011;56704;54.242;12.442;2023-05-16T12:25:20;4.32;;;0.60;;
69502;SDS011;56704;54.242;12.442;2023-05-16T12:27:47;4.72;;;0.60;;
69502;SDS011;56704;54.242;12.442;2023-05-16T12:30:15;9.75;;;0.73;;
69502;SDS011;56704;54.242;12.442;2023-05-16T12:32:42;4.45;;;0.63;;
69502;SDS011;56704;54.242;12.442;2023-05-16T12:35:09;6.10;;;0.80;;
69502;SDS011;56704;54.242;12.442;2023-05-16T12:37:36;4.43;;;0.73;;
69502;SDS011;56704;54.242;12.442;2023-05-16T12:40:04;7.03;;;0.70;;
69502;SDS011;56704;54.242;12.442;2023-05-16T12:42:36;3.45;;;0.50;;
69502;SDS011;56704;54.242;12.442;2023-05-16T12:45:03;7.50;;;0.85;;
69502;SDS011;56704;54.242;12.442;2023-05-16T12:47:34;7.87;;;0.70;;
69502;SDS011;56704;54.242;12.442;2023-05-16T12:50:01;2.95;;;0.52;;
69502;SDS011;56704;54.242;12.442;2023-05-16T12:52:28;7.18;;;0.70;;
69502;SDS011;56704;54.242;12.442;2023-05-16T12:54:55;5.03;;;0.88;;
69502;SDS011;56704;54.242;12.442;2023-05-16T12:57:21;5.05;;;1.00;;
69502;SDS011;56704;54.242;12.442;2023-05-16T12:59:50;7.93;;;1.07;;
69502;SDS011;56704;54.242;12.442;2023-05-16T13:02:16;5.28;;;1.05;;
69502;SDS011;56704;54.242;12.442;2023-05-16T13:04:43;7.10;;;0.88;;
69502;SDS011;56704;54.242;12.442;2023-05-16T13:07:10;7.88;;;1.10;;
69502;SDS011;56704;54.242;12.442;2023-05-16T13:09:38;3.67;;;0.73;;
69502;SDS011;56704;54.242;12.442;2023-05-16T13:12:05;5.47;;;0.60;;
69502;SDS011;56704;54.242;12.442;2023-05-16T13:14:32;4.85;;;0.70;;
69502;SDS011;56704;54.242;12.442;2023-05-16T13:17:00;5.57;;;0.88;;
69502;SDS011;56704;54.242;12.442;2023-05-16T13:19:28;4.70;;;0.70;;
69502;SDS011;56704;54.242;12.442;2023-05-16T13:21:55;5.90;;;1.05;;
69502;SDS011;56704;54.242;12.442;2023-05-16T13:24:22;6.50;;;0.83;;
69502;SDS011;56704;54.242;12.442;2023-05-16T13:26:48;5.38;;;0.60;;
69502;SDS011;56704;54.242;12.442;2023-05-16T13:29:15;7.00;;;0.90;;
69502;SDS011;56704;54.242;12.442;2023-05-16T13:31:41;8.15;;;0.90;;
69502;SDS011;56704;54.242;12.442;2023-05-16T13:34:10;6.07;;;0.73;;
69502;SDS011;56704;54.242;12.442;2023-05-16T13:36:36;6.07;;;1.00;;
69502;SDS011;56704;54.242;12.442;2023-05-16T13:39:03;8.00;;;0.80;;
69502;SDS011;56704;54.242;12.442;2023-05-16T13:41:30;3.45;;;0.88;;
69502;SDS011;56704;54.242;12.442;2023-05-16T13:44:01;6.63;;;1.20;;
69502;SDS011;56704;54.242;12.442;2023-05-16T13:46:28;6.40;;;0.82;;
69502;SDS011;56704;54.242;12.442;2023-05-16T13:48:55;8.03;;;0.80;;
69502;SDS011;56704;54.242;12.442;2023-05-16T13:51:23;4.68;;;0.40;;
69502;SDS011;56704;54.242;12.442;2023-05-16T13:53:50;9.35;;;0.80;;
69502;SDS011;56704;54.242;12.442;2023-05-16T13:56:16;4.63;;;0.55;;
69502;SDS011;56704;54.242;12.442;2023-05-16T13:58:43;2.50;;;0.38;;
69502;SDS011;56704;54.242;12.442;2023-05-16T14:01:10;4.17;;;0.50;;
69502;SDS011;56704;54.242;12.442;2023-05-16T14:03:37;12.80;;;0.90;;
69502;SDS011;56704;54.242;12.442;2023-05-16T14:06:04;4.72;;;0.70;;
69502;SDS011;56704;54.242;12.442;2023-05-16T14:08:32;4.95;;;0.80;;
69502;SDS011;56704;54.242;12.442;2023-05-16T14:10:59;6.93;;;0.95;;
69502;SDS011;56704;54.242;12.442;2023-05-16T14:13:25;7.07;;;0.90;;
69502;SDS011;56704;54.242;12.442;2023-05-16T14:15:52;8.43;;;0.90;;
69502;SDS011;56704;54.242;12.442;2023-05-16T14:18:19;5.57;;;0.60;;
69502;SDS011;56704;54.242;12.442;2023-05-16T14:20:45;3.83;;;0.57;;
69502;SDS011;56704;54.242;12.442;2023-05-16T14:23:12;4.63;;;0.60;;
69502;SDS011;56704;54.242;12.442;2023-05-16T14:25:40;3.50;;;0.73;;
69502;SDS011;56704;54.242;12.442;2023-05-16T14:28:06;3.90;;;0.82;;
69502;SDS011;56704;54.242;12.442;2023-05-16T14:30:33;6.97;;;1.08;;
69502;SDS011;56704;54.242;12.442;2023-05-16T14:33:01;7.35;;;0.88;;